Time;durP1;ratioP1;P1;durP2;ratioP2;P2;SDS_P1;SDS_P2;PMS_P1;PMS_P2;Temp;Humidity;BMP_temperature;BMP_pressure;BME280_temperature;BME280_humidity;BME280_pressure;Samples;Min_cycle;Max_cycle;Signal;HPM_P1;HPM_P2
2022/05/03 00:08:39;;;;;;;4.93;2.83;;;18.70;75.60;;;;;;5115401;28;19920;-65
2022/05/03 00:11:22;;;;;;;5.00;2.53;;;18.40;75.50;;;;;;5111763;28;20425;-65
2022/05/03 00:14:11;;;;;;;5.50;2.70;;;18.30;75.30;;;;;;5101415;28;20067;-65
2022/05/03 00:17:03;;;;;;;5.00;2.88;;;18.40;75.40;;;;;;5092070;28;20105;-65
2022/05/03 00:19:30;;;;;;;4.82;2.90;;;18.50;72.90;;;;;;5088801;28;20119;-65
2022/05/03 00:22:14;;;;;;;4.88;2.92;;;18.60;75.40;;;;;;5094108;28;20048;-65
2022/05/03 00:24:58;;;;;;;5.18;3.00;;;18.70;75.60;;;;;;5095281;28;20125;-65
2022/05/03 00:28:02;;;;;;;5.25;3.00;;;18.40;75.30;;;;;;5095010;28;20081;-65
2022/05/03 00:30:57;;;;;;;5.28;2.90;;;18.40;70.60;;;;;;5084009;28;20398;-65
2022/05/03 00:33:35;;;;;;;5.10;3.00;;;18.60;75.80;;;;;;5076950;28;20056;-66
2022/05/03 00:36:41;;;;;;;4.47;3.03;;;18.50;75.40;;;;;;5059160;28;20101;-65
2022/05/03 00:39:16;;;;;;;6.28;3.13;;;18.60;75.50;;;;;;5075473;28;20045;-65
2022/05/03 00:46:14;;;;;;;5.07;2.90;;;18.40;75.70;;;;;;5053096;28;20053;-65
2022/05/03 00:49:33;;;;;;;5.35;3.15;;;18.60;75.50;;;;;;5053078;28;20128;-65
2022/05/03 00:52:12;;;;;;;5.63;2.85;;;18.50;71.80;;;;;;4974302;28;20603;-65
2022/05/03 00:55:00;;;;;;;5.03;3.00;;;18.40;75.40;;;;;;4973352;28;20508;-65
2022/05/03 00:57:40;;;;;;;5.80;3.00;;;18.30;75.30;;;;;;4955158;28;20082;-65
2022/05/03 01:00:15;;;;;;;5.45;3.20;;;18.70;75.50;;;;;;4958270;28;20231;-66
2022/05/03 01:03:06;;;;;;;5.47;3.40;;;18.40;75.30;;;;;;4973261;28;20034;-65
2022/05/03 01:06:09;;;;;;;5.82;3.30;;;18.40;75.30;;;;;;4972171;28;20432;-65
2022/05/03 01:12:21;;;;;;;7.35;3.33;;;18.30;75.30;;;;;;4976500;28;20050;-65
2022/05/03 01:19:08;;;;;;;5.60;3.50;;;18.30;70.50;;;;;;4957606;28;20484;-66
2022/05/03 01:25:44;;;;;;;5.40;3.70;;;18.30;74.60;;;;;;5003663;28;20473;-65
2022/05/03 01:29:00;;;;;;;6.00;3.80;;;18.40;70.60;;;;;;5053851;28;20060;-65
2022/05/03 01:31:59;;;;;;;6.20;3.55;;;18.30;75.20;;;;;;5052419;28;20135;-66
2022/05/03 01:34:44;;;;;;;5.60;3.75;;;18.60;75.40;;;;;;5050408;28;20044;-66
2022/05/03 01:37:36;;;;;;;6.70;3.75;;;18.30;75.30;;;;;;5051234;28;20036;-66
2022/05/03 01:44:06;;;;;;;6.65;3.70;;;18.50;72.80;;;;;;5052700;28;20055;-65
2022/05/03 01:46:41;;;;;;;5.93;3.83;;;18.50;75.40;;;;;;5035442;28;20549;-65
2022/05/03 02:00:30;;;;;;;6.43;3.90;;;18.30;75.30;;;;;;5059576;28;20063;-65
2022/05/03 02:03:27;;;;;;;6.07;3.60;;;18.50;75.50;;;;;;5039857;28;20049;-65
2022/05/03 02:10:09;;;;;;;6.40;3.83;;;18.10;75.30;;;;;;5074048;28;20126;-65
2022/05/03 02:20:17;;;;;;;7.03;3.70;;;18.10;75.30;;;;;;5081604;28;20047;-66
2022/05/03 02:37:41;;;;;;;7.32;4.25;;;17.90;75.40;;;;;;5107642;28;20051;-66
2022/05/03 02:40:20;;;;;;;7.72;5.05;;;17.90;75.30;;;;;;5114178;28;20047;-65
2022/05/03 02:43:04;;;;;;;7.00;4.75;;;18.10;75.50;;;;;;5099764;28;20040;-66
2022/05/03 02:46:07;;;;;;;6.72;4.38;;;18.20;75.50;;;;;;5093741;28;20051;-65
2022/05/03 02:48:40;;;;;;;8.00;4.00;;;18.40;75.70;;;;;;5113959;28;20051;-66
2022/05/03 02:55:21;;;;;;;6.28;4.15;;;18.00;75.30;;;;;;5105276;28;20072;-65
2022/05/03 03:05:09;;;;;;;7.28;4.45;;;18.30;75.70;;;;;;5106140;28;20139;-65
2022/05/03 03:07:57;;;;;;;7.97;4.88;;;18.10;75.50;;;;;;5086010;28;20075;-65
2022/05/03 03:10:45;;;;;;;7.43;4.50;;;18.10;75.40;;;;;;5080058;28;20129;-66
2022/05/03 03:20:57;;;;;;;7.88;5.05;;;18.20;75.60;;;;;;5050857;28;20052;-66
2022/05/03 03:23:29;;;;;;;8.68;5.03;;;17.90;70.50;;;;;;5021859;28;20537;-64
2022/05/03 03:26:31;;;;;;;7.45;5.07;;;18.10;75.50;;;;;;5018321;28;20053;-65
2022/05/03 03:29:38;;;;;;;7.97;4.93;;;18.10;75.50;;;;;;5019350;28;20051;-65
2022/05/03 03:32:25;;;;;;;9.25;5.95;;;18.10;75.60;;;;;;5045041;28;20367;-65
2022/05/03 03:35:09;;;;;;;8.43;5.03;;;18.00;75.40;;;;;;5073775;28;20045;-65
2022/05/03 03:37:59;;;;;;;6.65;4.75;;;18.30;75.70;;;;;;5036607;28;20052;-65
2022/05/03 03:40:47;;;;;;;7.32;4.80;;;18.00;75.40;;;;;;5023022;28;20120;-66
2022/05/03 03:43:30;;;;;;;7.65;5.68;;;18.00;75.60;;;;;;5028357;28;20460;-66
2022/05/03 03:46:17;;;;;;;8.30;5.30;;;17.90;71.20;;;;;;5004968;28;20045;-65
2022/05/03 03:49:24;;;;;;;8.30;5.32;;;18.00;72.80;;;;;;5078654;28;20418;-66
2022/05/03 03:52:13;;;;;;;9.20;5.43;;;17.90;71.80;;;;;;5095417;28;20052;-67
2022/05/03 03:59:15;;;;;;;8.60;5.07;;;17.90;75.70;;;;;;5098120;28;20097;-65
2022/05/03 04:01:50;;;;;;;7.50;4.90;;;17.90;75.90;;;;;;5079498;28;20050;-66
2022/05/03 04:04:36;;;;;;;8.13;5.50;;;18.30;75.80;;;;;;5078264;28;20055;-66
2022/05/03 04:07:21;;;;;;;8.75;5.60;;;18.00;75.70;;;;;;5078469;28;20404;-65
2022/05/03 04:10:11;;;;;;;8.73;5.72;;;17.90;76.30;;;;;;5112871;28;20219;-65
2022/05/03 04:13:01;;;;;;;8.80;5.55;;;18.10;75.70;;;;;;5113378;28;20424;-66
2022/05/03 04:15:46;;;;;;;7.55;5.32;;;18.00;75.70;;;;;;5097506;28;20051;-65
2022/05/03 04:18:46;;;;;;;8.88;5.57;;;18.10;75.90;;;;;;5120272;27;20114;-65
2022/05/03 04:21:38;;;;;;;;;;;;;;;;;;;;;
2022/05/03 04:24:13;;;;;;;6.75;4.55;;;18.00;75.90;;;;;;5073276;28;20048;-66
2022/05/03 04:30:20;;;;;;;8.30;4.90;;;18.10;75.90;;;;;;5116356;28;20047;-66
2022/05/03 04:33:16;;;;;;;8.15;4.93;;;18.00;75.90;;;;;;5126274;27;20039;-65
2022/05/03 04:58:49;;;;;;;8.48;5.13;;;18.20;76.30;;;;;;5115782;28;20074;-65
2022/05/03 05:13:26;;;;;;;7.15;4.78;;;18.20;76.50;;;;;;5134047;27;20129;-66
2022/05/03 05:20:25;;;;;;;9.70;5.68;;;18.20;76.50;;;;;;5122782;27;20070;-66
2022/05/03 05:27:36;;;;;;;8.18;5.57;;;18.40;71.90;;;;;;5094781;28;20134;-66
2022/05/03 05:37:34;;;;;;;9.60;5.97;;;18.30;76.80;;;;;;5010345;28;20053;-66
2022/05/03 05:40:52;;;;;;;10.25;5.80;;;18.20;76.60;;;;;;4975747;28;20496;-65
2022/05/03 05:43:18;;;;;;;10.25;5.95;;;18.40;76.80;;;;;;4978661;28;20057;-66
2022/05/03 05:53:35;;;;;;;10.15;6.03;;;18.50;76.90;;;;;;4951446;29;20050;-65
2022/05/03 05:57:05;;;;;;;10.10;6.55;;;18.50;76.90;;;;;;4953789;29;20084;-65
2022/05/03 06:07:21;;;;;;;9.57;6.25;;;18.70;77.40;;;;;;4952902;29;20038;-65
2022/05/03 06:09:52;;;;;;;10.13;6.32;;;18.50;77.40;;;;;;4936222;29;20152;-65
2022/05/03 06:12:58;;;;;;;9.35;6.10;;;18.50;77.20;;;;;;4929513;29;20401;-65
2022/05/03 06:19:20;;;;;;;9.05;6.05;;;18.70;77.60;;;;;;4952426;29;20090;-64
2022/05/03 06:25:58;;;;;;;9.70;6.47;;;18.30;77.50;;;;;;5013825;28;20049;-65
2022/05/03 06:36:35;;;;;;;10.38;6.18;;;18.80;78.10;;;;;;5110293;28;20039;-65
2022/05/03 06:39:38;;;;;;;9.00;5.28;;;18.70;78.20;;;;;;5076004;28;20087;-65
2022/05/03 06:42:23;;;;;;;10.52;5.50;;;18.40;78.10;;;;;;5065478;28;20062;-66
2022/05/03 06:45:01;;;;;;;;;;;;;;;;;;;;;
2022/05/03 06:47:48;;;;;;;9.57;4.00;;;18.50;78.20;;;;;;5092509;28;20040;-66
2022/05/03 06:50:51;;;;;;;8.70;4.68;;;18.50;78.20;;;;;;5075744;28;20405;-65
2022/05/03 08:18:31;;;;;;;16.08;3.72;;;18.80;79.20;;;;;;5097931;28;20451;-64
2022/05/03 08:31:41;;;;;;;10.77;3.83;;;19.00;78.90;;;;;;5078378;28;20051;-64
2022/05/03 08:34:23;;;;;;;8.82;2.78;;;19.10;75.10;;;;;;5077738;28;20569;-63
2022/05/03 08:44:00;;;;;;;10.50;3.25;;;19.10;79.20;;;;;;5094834;28;20062;-64
2022/05/03 08:47:03;;;;;;;14.40;3.00;;;19.10;78.60;;;;;;5077537;28;20493;-64
2022/05/03 08:52:50;;;;;;;10.98;3.53;;;19.20;78.60;;;;;;5107358;28;19951;-64
2022/05/03 08:55:41;;;;;;;8.45;3.08;;;19.20;78.70;;;;;;5116106;28;20054;-64
2022/05/03 08:58:08;;;;;;;11.95;3.20;;;19.10;78.30;;;;;;5116078;28;20035;-64
2022/05/03 09:00:35;;;;;;;11.93;3.20;;;19.10;78.60;;;;;;5097776;28;20093;-64
2022/05/03 09:03:06;;;;;;;7.97;3.20;;;19.40;78.50;;;;;;5075265;28;20067;-65
2022/05/03 09:05:53;;;;;;;9.80;3.13;;;19.20;75.90;;;;;;5053178;28;20052;-64
2022/05/03 09:11:53;;;;;;;10.70;3.30;;;19.50;73.70;;;;;;5094915;28;20134;-65
2022/05/03 09:14:39;;;;;;;12.43;4.05;;;19.40;78.30;;;;;;5082401;28;20117;-66
2022/05/03 09:17:34;;;;;;;9.00;3.38;;;19.30;78.20;;;;;;5059558;28;20068;-66
2022/05/03 09:23:46;;;;;;;11.27;3.17;;;19.50;78.10;;;;;;5085283;28;20222;-66
2022/05/03 09:25:37;;;;;;;9.48;3.08;;;;;;;;;;5042928;28;20169;-64
2022/05/03 09:28:22;;;;;;;9.63;2.78;;;19.40;77.90;;;;;;5073975;28;20096;-64
2022/05/03 09:30:50;;;;;;;7.63;2.83;;;19.60;77.90;;;;;;5075349;28;20416;-65
2022/05/03 09:33:21;;;;;;;6.53;2.25;;;19.70;77.90;;;;;;5059998;28;20091;-63
2022/05/03 09:35:47;;;;;;;7.72;2.60;;;19.60;77.80;;;;;;5076478;28;20562;-64
2022/05/03 09:38:15;;;;;;;14.18;2.88;;;19.40;77.60;;;;;;5069543;28;20131;-63
2022/05/03 09:40:42;;;;;;;7.32;2.70;;;19.60;77.70;;;;;;5072023;28;20102;-64
2022/05/03 09:43:09;;;;;;;8.80;3.03;;;19.70;77.70;;;;;;5088719;28;21994;-65
2022/05/03 09:45:37;;;;;;;8.77;2.83;;;19.50;77.60;;;;;;5039731;28;20131;-64
2022/05/03 09:48:03;;;;;;;7.20;2.35;;;19.60;77.60;;;;;;5040065;28;20114;-65
2022/05/03 09:50:31;;;;;;;7.90;2.63;;;19.60;77.50;;;;;;5041337;28;20260;-65
2022/05/03 09:52:57;;;;;;;9.13;2.88;;;19.60;77.50;;;;;;5076380;28;20496;-65
2022/05/03 09:55:34;;;;;;;7.40;2.35;;;19.80;77.40;;;;;;5072385;28;20119;-65
2022/05/03 09:58:05;;;;;;;8.60;2.53;;;19.90;77.50;;;;;;5048960;28;20059;-67
2022/05/03 10:00:33;;;;;;;7.72;2.35;;;19.70;77.50;;;;;;5050599;28;20125;-66
2022/05/03 10:03:01;;;;;;;6.97;2.50;;;19.90;74.40;;;;;;5055299;28;20090;-65
2022/05/03 10:05:28;;;;;;;6.15;2.47;;;19.80;74.30;;;;;;5056842;28;20044;-65
2022/05/03 10:07:55;;;;;;;6.93;2.30;;;19.50;74.00;;;;;;5094056;28;20040;-65
2022/05/03 10:10:21;;;;;;;7.72;2.45;;;20.00;77.30;;;;;;5094015;28;20126;-65
2022/05/03 10:12:49;;;;;;;7.53;2.42;;;19.90;77.20;;;;;;5072296;28;20032;-65
2022/05/03 10:21:30;;;;;;;8.98;2.55;;;20.10;77.10;;;;;;5061569;28;20060;-65
2022/05/03 10:24:09;;;;;;;7.53;2.42;;;20.20;77.00;;;;;;5076679;28;20047;-64
2022/05/03 10:26:56;;;;;;;6.35;2.30;;;19.90;76.70;;;;;;5049157;28;20072;-65
2022/05/03 10:29:25;;;;;;;7.90;2.50;;;20.30;76.90;;;;;;5068045;28;20117;-65
2022/05/03 10:32:02;;;;;;;6.45;2.22;;;20.20;76.80;;;;;;5040341;28;20043;-65
2022/05/03 10:34:51;;;;;;;4.85;1.88;;;20.10;72.10;;;;;;5067664;28;20501;-65
2022/05/03 10:37:19;;;;;;;6.57;2.30;;;20.30;76.60;;;;;;5065238;28;20052;-65
2022/05/03 10:39:55;;;;;;;6.35;2.47;;;20.20;76.50;;;;;;5054840;28;20123;-65
2022/05/03 10:42:28;;;;;;;8.85;2.55;;;20.20;76.60;;;;;;5024724;28;20115;-65
2022/05/03 10:45:01;;;;;;;5.65;2.58;;;20.50;76.70;;;;;;5034770;28;20054;-65
2022/05/03 10:47:49;;;;;;;5.95;2.20;;;20.60;74.10;;;;;;5076361;28;20119;-65
2022/05/03 10:50:18;;;;;;;5.50;1.90;;;20.50;76.80;;;;;;5055348;28;20115;-66
2022/05/03 10:52:59;;;;;;;6.47;2.22;;;20.50;76.70;;;;;;5055507;28;20135;-65
2022/05/03 10:55:29;;;;;;;7.38;2.40;;;20.60;76.60;;;;;;5055611;28;20401;-65
2022/05/03 10:58:21;;;;;;;6.57;2.22;;;20.30;76.30;;;;;;5038822;28;20036;-65
2022/05/03 11:01:10;;;;;;;6.38;2.28;;;20.50;76.70;;;;;;5057934;28;20560;-65
2022/05/03 11:03:57;;;;;;;6.68;2.45;;;20.50;73.00;;;;;;5044589;28;20139;-65
2022/05/03 11:06:23;;;;;;;6.45;2.38;;;20.50;76.30;;;;;;5040940;28;20383;-65
2022/05/03 11:09:04;;;;;;;7.72;2.38;;;20.20;76.00;;;;;;5062538;28;20101;-65
2022/05/03 11:11:44;;;;;;;7.28;2.20;;;20.60;76.40;;;;;;5052402;28;20052;-66
2022/05/03 11:14:21;;;;;;;5.05;1.92;;;20.60;76.30;;;;;;5055052;28;20044;-67
2022/05/03 11:17:03;;;;;;;6.38;2.00;;;20.60;72.80;;;;;;5055228;28;20136;-64
2022/05/03 11:19:29;;;;;;;5.95;2.20;;;;;;;;;;5072694;28;20087;-66
2022/05/03 11:21:56;;;;;;;6.22;1.85;;;20.60;76.30;;;;;;5077186;28;20051;-66
2022/05/03 11:24:25;;;;;;;7.05;3.22;;;20.50;76.20;;;;;;5075014;28;20182;-67
2022/05/03 11:27:00;;;;;;;6.78;2.42;;;20.30;73.60;;;;;;5092313;28;20036;-65
2022/05/03 11:29:31;;;;;;;6.30;2.30;;;20.70;76.20;;;;;;5075241;28;20122;-65
2022/05/03 11:31:59;;;;;;;5.95;2.08;;;20.70;76.20;;;;;;5063736;28;20059;-64
2022/05/03 11:34:26;;;;;;;6.90;2.25;;;;;;;;;;5109806;28;20056;-64
2022/05/03 11:36:52;;;;;;;6.82;2.35;;;20.40;71.30;;;;;;5077655;28;20087;-65
2022/05/03 11:39:20;;;;;;;6.60;2.47;;;20.70;76.00;;;;;;5078458;28;20108;-65
2022/05/03 11:41:46;;;;;;;5.65;2.00;;;;;;;;;;5088916;28;20044;-66
2022/05/03 11:44:13;;;;;;;6.13;2.53;;;;;;;;;;5103089;28;20051;-65
2022/05/03 11:46:48;;;;;;;5.90;1.85;;;21.00;76.00;;;;;;5058245;28;20048;-64
2022/05/03 11:49:16;;;;;;;6.03;2.22;;;20.80;75.90;;;;;;5060252;28;20121;-65
2022/05/03 11:57:31;;;;;;;8.55;1.90;;;20.80;75.70;;;;;;5084917;28;20062;-64
2022/05/03 11:59:58;;;;;;;6.85;2.15;;;21.00;75.60;;;;;;5083032;28;20450;-65
2022/05/03 12:02:34;;;;;;;5.05;1.83;;;21.00;75.50;;;;;;5114991;28;20058;-64
2022/05/03 12:05:07;;;;;;;7.38;2.25;;;20.80;75.40;;;;;;5091635;28;20050;-64
2022/05/03 12:07:52;;;;;;;11.43;2.35;;;21.00;75.50;;;;;;5087094;28;20039;-64
2022/05/03 12:10:37;;;;;;;8.10;2.08;;;20.90;75.40;;;;;;5065990;28;20088;-63
2022/05/03 12:13:17;;;;;;;6.88;2.05;;;20.80;75.30;;;;;;5078669;28;20043;-66
2022/05/03 12:15:48;;;;;;;8.32;2.70;;;20.80;75.60;;;;;;5067402;28;20496;-65
2022/05/03 12:18:18;;;;;;;7.40;2.08;;;20.70;72.20;;;;;;5028090;28;20532;-64
2022/05/03 12:20:46;;;;;;;7.05;1.90;;;20.80;75.20;;;;;;5061859;28;20164;-64
2022/05/03 12:23:21;;;;;;;5.80;2.17;;;20.80;75.10;;;;;;5061287;28;20044;-64
2022/05/03 12:25:54;;;;;;;8.10;1.88;;;21.00;75.20;;;;;;5056515;28;20044;-64
2022/05/03 12:28:21;;;;;;;9.30;2.30;;;21.00;75.10;;;;;;5056604;28;20047;-65
2022/05/03 12:30:55;;;;;;;8.45;2.20;;;20.80;75.10;;;;;;5057128;28;20044;-65
2022/05/03 12:33:27;;;;;;;8.57;2.47;;;21.10;75.20;;;;;;5060936;28;20066;-65
2022/05/03 12:35:54;;;;;;;8.05;2.30;;;20.80;75.00;;;;;;5082190;28;20047;-64
2022/05/03 12:38:24;;;;;;;9.65;2.40;;;20.70;74.90;;;;;;5067533;28;20059;-64
2022/05/03 12:40:59;;;;;;;6.25;2.03;;;20.70;74.90;;;;;;5078668;28;20085;-64
2022/05/03 12:43:28;;;;;;;10.10;2.85;;;20.90;75.00;;;;;;5096116;28;20048;-67
2022/05/03 12:45:59;;;;;;;7.70;2.13;;;20.70;75.20;;;;;;5078369;28;20044;-65
2022/05/03 12:48:27;;;;;;;11.05;2.20;;;21.00;75.20;;;;;;5095391;28;20039;-67
2022/05/03 12:50:56;;;;;;;6.85;2.20;;;21.10;75.30;;;;;;5077877;28;20044;-65
2022/05/03 12:53:29;;;;;;;5.32;2.08;;;20.80;71.10;;;;;;5077981;28;20093;-64
2022/05/03 12:58:21;;;;;;;7.35;2.53;;;20.60;74.90;;;;;;5077473;28;20082;-64
2022/05/03 12:58:46;;;;;;;8.05;1.85;;;20.90;75.10;;;;;;5077430;28;20506;-65
2022/05/03 13:01:17;;;;;;;7.72;2.22;;;20.60;75.10;;;;;;5043871;28;20401;-64
2022/05/03 13:03:47;;;;;;;7.90;2.10;;;20.70;72.00;;;;;;5078195;28;20044;-65
2022/05/03 13:06:20;;;;;;;9.60;2.25;;;20.60;75.10;;;;;;5063566;28;20492;-64
2022/05/03 13:08:47;;;;;;;11.38;2.88;;;20.90;75.10;;;;;;5075650;28;20063;-65
2022/05/03 13:11:19;;;;;;;7.57;2.13;;;20.90;70.50;;;;;;5090142;28;20048;-66
2022/05/03 13:13:45;;;;;;;8.10;2.47;;;20.80;75.20;;;;;;5109260;27;20036;-67
2022/05/03 13:16:12;;;;;;;7.72;2.40;;;20.70;75.10;;;;;;5082947;28;20048;-67
2022/05/03 13:18:39;;;;;;;9.13;2.10;;;20.30;74.90;;;;;;5060578;28;20063;-67
2022/05/03 13:21:07;;;;;;;10.10;2.63;;;20.50;71.10;;;;;;5094418;28;20040;-66
2022/05/03 13:23:36;;;;;;;6.80;2.13;;;20.70;75.20;;;;;;5077225;28;20102;-64
2022/05/03 13:26:02;;;;;;;7.63;2.22;;;20.60;75.10;;;;;;5093411;28;20519;-64
2022/05/03 13:28:30;;;;;;;5.30;2.05;;;20.60;75.00;;;;;;5112335;28;20039;-67
2022/05/03 13:30:56;;;;;;;9.80;2.35;;;20.80;75.20;;;;;;5096652;28;20464;-63
2022/05/03 13:33:23;;;;;;;6.93;2.20;;;20.80;72.10;;;;;;5114783;28;20043;-65
2022/05/03 13:41:49;;;;;;;8.77;2.38;;;20.80;74.90;;;;;;5097317;28;20047;-63
2022/05/03 13:44:19;;;;;;;7.75;2.38;;;20.80;71.90;;;;;;5094696;28;20180;-65
2022/05/03 13:46:45;;;;;;;7.43;2.28;;;20.60;74.90;;;;;;5074800;28;20127;-67
2022/05/03 13:49:13;;;;;;;7.35;2.28;;;20.80;74.80;;;;;;5094425;28;20453;-64
2022/05/03 13:51:41;;;;;;;7.55;2.58;;;20.80;74.70;;;;;;5093948;28;20048;-64
2022/05/03 13:54:07;;;;;;;6.05;2.35;;;20.60;74.50;;;;;;5065255;28;20054;-67
2022/05/03 13:56:34;;;;;;;6.35;2.13;;;20.70;72.70;;;;;;5078013;28;20036;-65
2022/05/03 13:59:03;;;;;;;6.22;1.92;;;20.70;74.50;;;;;;5079416;28;20051;-64
2022/05/03 14:01:29;;;;;;;6.25;2.25;;;;;;;;;;5079720;28;20043;-67
2022/05/03 14:03:59;;;;;;;7.15;2.40;;;20.70;74.50;;;;;;5079003;28;20551;-64
2022/05/03 14:06:25;;;;;;;6.60;2.10;;;;;;;;;;5078227;28;20055;-64
2022/05/03 14:08:51;;;;;;;8.18;2.50;;;20.50;74.30;;;;;;5080376;28;20081;-64
2022/05/03 14:11:18;;;;;;;8.02;2.53;;;20.70;74.40;;;;;;5050104;28;20072;-64
2022/05/03 14:13:44;;;;;;;7.30;2.03;;;20.70;74.50;;;;;;5059243;28;20476;-65
2022/05/03 14:16:10;;;;;;;7.60;2.13;;;20.60;74.40;;;;;;5051906;28;20040;-65
2022/05/03 14:18:43;;;;;;;10.00;2.15;;;20.60;74.30;;;;;;5075019;28;20074;-63
2022/05/03 14:21:10;;;;;;;6.57;2.28;;;20.60;74.30;;;;;;5065024;28;20043;-64
2022/05/03 14:23:36;;;;;;;7.57;2.60;;;20.50;74.20;;;;;;5079394;28;20372;-64
2022/05/03 14:26:23;;;;;;;6.20;2.10;;;20.60;74.30;;;;;;5073347;28;20050;-65
2022/05/03 14:28:50;;;;;;;7.93;2.38;;;20.50;74.10;;;;;;5085802;28;20405;-64
2022/05/03 14:31:35;;;;;;;10.20;2.60;;;20.60;74.30;;;;;;5062686;28;20074;-65
2022/05/03 14:34:05;;;;;;;6.97;2.50;;;20.70;74.40;;;;;;5049669;28;20127;-64
2022/05/03 14:36:41;;;;;;;20.10;3.20;;;20.60;74.20;;;;;;5060700;28;20043;-64
2022/05/03 14:39:07;;;;;;;8.25;3.10;;;;;;;;;;5058410;28;20097;-67
2022/05/03 14:41:38;;;;;;;10.50;2.95;;;20.50;74.30;;;;;;5074063;28;20047;-68
2022/05/03 14:47:42;;;;;;;8.35;2.63;;;20.40;69.80;;;;;;5095152;28;20078;-64
2022/05/03 14:50:13;;;;;;;9.20;2.90;;;20.50;74.30;;;;;;5094173;28;20044;-63
2022/05/03 14:52:43;;;;;;;9.65;2.72;;;20.30;74.30;;;;;;5085800;28;20070;-64
2022/05/03 14:55:11;;;;;;;8.10;2.47;;;20.40;74.30;;;;;;5100916;28;20389;-64
2022/05/03 15:03:36;;;;;;;;;;;20.40;71.10;;;;;;5105036;28;20104;-64
2022/05/03 15:06:06;;;;;;;8.23;2.25;;;20.30;74.20;;;;;;5091469;28;20292;-65
2022/05/03 15:08:54;;;;;;;9.80;3.33;;;20.10;72.60;;;;;;5073913;28;20126;-63
2022/05/03 15:11:21;;;;;;;8.55;2.80;;;;;;;;;;5076264;28;20047;-63
2022/05/03 15:13:47;;;;;;;8.20;2.72;;;20.00;73.50;;;;;;5082313;28;20044;-64
2022/05/03 15:16:13;;;;;;;7.38;2.70;;;20.10;73.30;;;;;;5084636;28;20109;-64
2022/05/03 15:18:44;;;;;;;11.43;2.75;;;19.90;73.10;;;;;;5094879;28;20052;-64
2022/05/03 15:21:15;;;;;;;7.75;2.47;;;20.10;73.20;;;;;;5079705;28;20401;-64
2022/05/03 15:26:35;;;;;;;7.18;2.17;;;19.90;70.00;;;;;;5078348;28;20493;-64
2022/05/03 15:29:01;;;;;;;14.25;3.35;;;19.90;73.40;;;;;;5063183;28;20043;-63
2022/05/03 15:31:31;;;;;;;7.85;2.22;;;19.80;73.40;;;;;;5063361;28;20491;-64
2022/05/03 15:33:58;;;;;;;8.20;2.58;;;19.70;73.40;;;;;;5086467;28;20093;-65
2022/05/03 15:36:41;;;;;;;12.27;2.65;;;19.90;73.50;;;;;;5090717;28;20062;-66
2022/05/03 15:39:08;;;;;;;11.82;3.20;;;20.00;73.70;;;;;;5073836;28;20043;-63
2022/05/03 15:42:12;;;;;;;7.93;2.75;;;19.90;73.90;;;;;;5069460;28;20051;-63
2022/05/03 15:48:28;;;;;;;8.65;2.75;;;19.80;74.20;;;;;;5095405;28;20083;-63
2022/05/03 15:54:42;;;;;;;8.35;2.70;;;19.70;74.00;;;;;;5081400;28;20044;-64
2022/05/03 15:57:45;;;;;;;6.50;2.10;;;19.80;74.20;;;;;;5078764;28;20036;-64
2022/05/03 16:07:42;;;;;;;8.80;2.25;;;19.50;74.40;;;;;;5098521;28;20070;-63
2022/05/03 16:10:42;;;;;;;6.35;2.50;;;19.50;69.70;;;;;;5062438;28;20047;-63
2022/05/03 16:16:42;;;;;;;7.80;2.30;;;19.70;70.00;;;;;;5077963;28;20241;-63
2022/05/03 16:19:23;;;;;;;8.38;2.40;;;19.50;74.80;;;;;;5077833;28;20552;-65
2022/05/03 16:22:18;;;;;;;10.40;2.60;;;19.70;74.70;;;;;;5063954;28;20435;-65
2022/05/03 16:28:32;;;;;;;9.32;3.00;;;19.60;75.00;;;;;;5105572;28;20173;-65
2022/05/03 16:35:10;;;;;;;6.20;2.50;;;19.60;75.10;;;;;;5116270;28;20515;-65
2022/05/03 16:44:39;;;;;;;8.38;2.92;;;19.80;72.30;;;;;;5103887;28;20413;-63
2022/05/03 16:47:37;;;;;;;7.15;3.03;;;19.60;75.40;;;;;;5077448;28;20047;-65
2022/05/03 16:50:22;;;;;;;6.82;2.60;;;19.80;75.10;;;;;;5095860;28;20401;-65
2022/05/03 16:53:10;;;;;;;8.23;2.30;;;19.70;74.90;;;;;;5077752;28;20051;-65
2022/05/03 16:56:19;;;;;;;8.75;2.80;;;19.50;70.40;;;;;;5077196;28;20078;-65
2022/05/03 16:59:09;;;;;;;6.13;2.45;;;19.50;75.20;;;;;;5094490;28;20043;-65
2022/05/03 17:01:54;;;;;;;6.38;2.60;;;19.70;75.00;;;;;;5079470;28;20047;-65
2022/05/03 17:04:45;;;;;;;8.55;3.08;;;19.60;72.80;;;;;;5044047;28;20055;-65
2022/05/03 17:07:36;;;;;;;7.57;2.33;;;19.60;72.50;;;;;;5088010;28;20047;-64
2022/05/03 17:10:21;;;;;;;9.00;2.95;;;19.80;72.50;;;;;;5083487;28;20097;-62
2022/05/03 17:13:02;;;;;;;7.30;2.47;;;19.60;75.00;;;;;;5096664;28;20401;-64
2022/05/03 17:19:28;;;;;;;5.57;2.17;;;19.50;75.40;;;;;;5093343;28;20546;-64
2022/05/03 17:22:19;;;;;;;7.50;2.33;;;19.50;74.90;;;;;;5077137;28;20059;-66
2022/05/03 17:24:49;;;;;;;7.07;3.13;;;19.40;73.10;;;;;;5076875;28;20489;-66
2022/05/03 17:27:16;;;;;;;7.45;2.60;;;19.30;74.90;;;;;;5095446;28;20078;-62
2022/05/03 17:29:55;;;;;;;7.20;2.60;;;19.50;74.90;;;;;;5082730;28;20118;-63
2022/05/03 17:32:42;;;;;;;7.28;2.60;;;19.30;74.90;;;;;;5079923;28;20056;-65
2022/05/03 17:35:36;;;;;;;8.38;2.83;;;19.30;74.80;;;;;;5060263;28;20044;-65
2022/05/03 17:38:32;;;;;;;9.50;2.65;;;19.30;74.80;;;;;;5076840;28;20052;-65
2022/05/03 17:41:00;;;;;;;8.85;2.58;;;19.50;74.90;;;;;;5076520;28;20123;-62
2022/05/03 17:43:33;;;;;;;9.02;2.50;;;19.50;74.00;;;;;;5077106;28;20062;-64
2022/05/03 17:49:04;;;;;;;7.25;2.40;;;19.40;72.30;;;;;;5076479;28;20409;-66
2022/05/03 17:54:55;;;;;;;9.52;2.33;;;19.20;75.20;;;;;;5079195;28;20071;-63
2022/05/03 17:57:21;;;;;;;6.20;2.28;;;19.20;74.90;;;;;;5087191;28;20116;-62
2022/05/03 18:00:30;;;;;;;7.85;2.53;;;19.20;75.00;;;;;;5059803;28;20040;-65
2022/05/03 18:02:56;;;;;;;7.40;2.85;;;19.20;75.00;;;;;;5076348;28;20451;-63
2022/05/03 18:05:24;;;;;;;6.75;2.30;;;19.20;71.50;;;;;;5056055;28;20135;-64
2022/05/03 18:15:27;;;;;;;5.95;2.15;;;19.00;75.00;;;;;;5090006;28;20101;-65
2022/05/03 18:18:12;;;;;;;6.03;2.50;;;19.20;75.00;;;;;;5089093;28;20074;-65
2022/05/03 18:20:57;;;;;;;7.55;2.47;;;19.10;70.20;;;;;;5078628;28;20048;-64
2022/05/03 18:23:48;;;;;;;7.57;2.58;;;19.10;72.90;;;;;;5062637;28;20477;-64
2022/05/03 18:26:39;;;;;;;6.75;2.35;;;19.10;75.10;;;;;;5060858;28;20040;-62
2022/05/03 18:33:03;;;;;;;7.85;2.33;;;18.80;74.50;;;;;;5381002;22;21087;-60
2022/05/03 18:35:58;;;;;;;7.68;2.67;;;19.40;71.10;;;;;;5030464;28;20073;-60
2022/05/03 18:38:28;;;;;;;8.38;2.75;;;19.10;75.20;;;;;;5016510;28;20038;-63
2022/05/03 18:41:02;;;;;;;5.72;2.20;;;19.00;75.00;;;;;;5033460;28;20128;-61
2022/05/03 18:44:07;;;;;;;7.10;2.38;;;19.20;75.30;;;;;;5012439;28;20111;-61
2022/05/03 18:47:11;;;;;;;7.43;2.38;;;19.10;75.10;;;;;;5031767;28;20053;-61
2022/05/03 18:50:16;;;;;;;8.27;2.35;;;19.10;75.10;;;;;;5033806;28;20496;-61
2022/05/03 18:52:51;;;;;;;6.82;2.40;;;19.10;75.20;;;;;;5033208;28;20057;-62
2022/05/03 18:55:40;;;;;;;7.20;2.30;;;18.90;75.20;;;;;;5032184;28;20498;-62
2022/05/03 18:58:21;;;;;;;6.45;2.15;;;19.10;70.40;;;;;;5048692;28;20053;-61
2022/05/03 19:05:14;;;;;;;6.97;2.10;;;18.90;75.40;;;;;;5054023;28;20171;-61
2022/05/03 19:08:10;;;;;;;;;;;;;;;;;;;;;
2022/05/03 19:10:43;;;;;;;8.32;2.50;;;18.80;75.10;;;;;;5002169;28;20037;-62
2022/05/03 19:13:28;;;;;;;7.75;2.58;;;19.10;72.60;;;;;;5052003;28;20481;-62
2022/05/03 19:31:15;;;;;;;6.97;2.20;;;18.90;75.50;;;;;;5013455;28;20041;-63
2022/05/03 19:37:38;;;;;;;9.30;2.72;;;18.90;75.20;;;;;;5072951;28;20061;-65
2022/05/03 19:40:08;;;;;;;7.43;2.17;;;19.10;73.00;;;;;;5072694;28;20036;-65
2022/05/03 19:46:49;;;;;;;7.07;2.28;;;18.60;75.10;;;;;;5072686;28;20143;-62
2022/05/03 19:49:36;;;;;;;6.28;2.30;;;18.90;75.50;;;;;;5072965;28;20044;-62
2022/05/03 19:52:42;;;;;;;6.43;2.33;;;18.60;75.10;;;;;;5052632;28;20091;-61
2022/05/03 19:55:29;;;;;;;5.80;2.53;;;18.90;71.60;;;;;;5053026;28;20041;-62
2022/05/03 20:06:22;;;;;;;7.22;2.10;;;18.90;71.70;;;;;;5072706;28;20178;-61
2022/05/03 20:09:20;;;;;;;6.65;1.90;;;18.80;75.40;;;;;;5073122;28;20049;-62
2022/05/03 20:11:56;;;;;;;5.80;2.35;;;18.90;75.80;;;;;;5055741;28;20044;-63
2022/05/03 20:22:03;;;;;;;9.10;2.78;;;18.80;75.60;;;;;;5075920;28;20083;-62
2022/05/03 20:25:08;;;;;;;5.97;2.28;;;18.90;75.70;;;;;;5076720;28;20423;-63
2022/05/03 20:31:49;;;;;;;7.35;2.40;;;18.60;76.40;;;;;;5076815;28;20030;-64
2022/05/03 20:34:16;;;;;;;11.05;3.03;;;18.80;76.40;;;;;;5071316;28;20053;-63
2022/05/03 20:37:13;;;;;;;6.43;2.38;;;18.50;76.20;;;;;;5040336;28;20092;-63
2022/05/03 20:43:32;;;;;;;5.05;2.03;;;18.70;76.80;;;;;;5057849;28;20083;-62
2022/05/03 20:52:58;;;;;;;6.60;2.10;;;18.60;76.50;;;;;;5055422;28;20405;-65
2022/05/03 21:10:18;;;;;;;9.50;2.70;;;18.80;77.40;;;;;;5074244;28;20573;-62
2022/05/03 21:13:05;;;;;;;7.25;2.40;;;18.70;77.30;;;;;;5054674;28;20052;-62
2022/05/03 21:15:49;;;;;;;9.45;3.03;;;18.60;77.50;;;;;;5055742;28;20401;-62